Aérodrome :
LOGIN :

S'inscrire | Disclaimer

   EN    FR    IT 

 










Légende :    VFR   VFR Marginal   IFR   IFR Intensif   IFR Très Intensif
Visi : 
Plafond : 
>= 8 km
>= 3000ft
5 à 8 km
1000 à 3000 ft
1500m à 5 km
500 à 1000 ft
800 à 1500m
200 à 500 ft
< 800m
< 200 ft
Symboles :   Orages  Brouillard  Fortes neiges  Fortes précipitations  Vent > 20 kt
SIGMETs :   Divers  Orages  Givrage  Turbulence  Onde Orograph.  Cendres Volcan.







- Altitude de l'aérodrome : 47 ft
- Code IATA : CBG
- Voir les cartes d'approche


EGSC - Cambridge

DERNIER METAR :
  • 231550Z 16009KT 9999 FEW040 18/11 Q1021

METARs EXPIRÉS :
  • 231520Z 17009KT 9999 FEW035 18/11 Q1021
  • 231450Z 17009KT 9999 FEW033 18/12 Q1021
  • 231420Z 17010KT 9999 FEW035 19/11 Q1021
  • 231350Z 19010KT 9999 FEW035 19/11 Q1021
  • 231320Z 17010KT 9999 SCT035 19/10 Q1022

TAF TAF EGSC
Valide du 23 à 15h jusqu'au 23 à 19h UTC


231400Z 2315/2319 16009KT 9999 FEW045
Pas de NOTAMs connus pour ce terrain.



MET'MAP, la Météo Aéronautique d'un coup d'oeil ! - Copyright ORBIFLY Décembre 2007 - Disclaimer

ORBIFLY MET'MAP TEAM :

Programmation & Développement : Alexandra Zaïnal
Conception & Développement : Baudouin d'Aumeries
Co-Programmation & Développement : Marc-Olivier Méhu
Soutien technique & logistique : Manuel Goepfert

Contact : metmap@orbifly.com




SOURCES & CREDITS :

   NOAA